KWHP/WHP METAR and TAF weather

Enter ICAO airport designator
Station Type Date Time Source
KWHP METAR 2019/06/17 14:50 UTC NOAA

KWHP 171450Z 00000KT 5SM BR OVC010 16/14 A2992


Station Type Date Time Source
KWHP Decoded METAR 2019/06/17 14:50 UTC NOAA

Los Angeles, Whiteman Airport, CA, United States (KWHP) 34-15N 118-24W
Jun 17, 2019 - 10:50 AM EDT / 2019.06.17 1450 UTC
Wind: Calm:0
Visibility: 5 mile(s):0
Sky conditions: overcast
Weather: mist
Temperature: 60 F (16 C)
Dew Point: 57 F (14 C)
Relative Humidity: 87%
Pressure (altimeter): 29.92 in. Hg (1013 hPa)
ob: KWHP 171450Z 00000KT 5SM BR OVC010 16/14 A2992
cycle: 15

Station Type Date Time Source
KWHP TAF UTC NOAA

Error!

Example: see airport list